createdAt,value
2024-03-03T00:00:48.817Z,93.98
2024-03-03T00:03:16.713Z,94.54
2024-03-03T00:05:44.449Z,96.75
2024-03-03T00:08:11.375Z,95.18
2024-03-03T00:10:38.238Z,95.82
2024-03-03T00:13:05.405Z,94.16
2024-03-03T00:15:32.380Z,95.00
2024-03-03T00:17:59.488Z,94.57
2024-03-03T00:20:26.388Z,91.78
2024-03-03T00:22:53.610Z,88.99
2024-03-03T00:25:20.550Z,87.60
2024-03-03T00:27:47.636Z,87.02
2024-03-03T00:30:14.695Z,87.91
2024-03-03T00:32:45.277Z,92.13
2024-03-03T00:35:13.145Z,92.65
2024-03-03T00:37:39.998Z,92.20
2024-03-03T00:40:07.636Z,89.63
2024-03-03T00:42:34.608Z,88.63
2024-03-03T00:45:02.120Z,89.77
2024-03-03T00:47:29.314Z,90.90
2024-03-03T00:49:56.474Z,89.91
2024-03-03T00:52:23.472Z,93.57
2024-03-03T00:54:50.410Z,96.12
2024-03-03T00:57:17.378Z,94.61
2024-03-03T00:59:44.270Z,94.07
2024-03-03T01:02:11.370Z,94.61
2024-03-03T01:04:38.307Z,96.33
2024-03-03T01:07:05.261Z,97.80
2024-03-03T01:09:33.051Z,100.00
2024-03-03T01:12:00.045Z,100.00
2024-03-03T01:14:27.077Z,100.00
2024-03-03T01:16:54.121Z,100.00
2024-03-03T01:19:21.472Z,100.00
2024-03-03T01:21:48.558Z,100.00
2024-03-03T01:24:15.545Z,100.00
2024-03-03T01:26:42.816Z,100.00
2024-03-03T01:29:09.679Z,100.00
2024-03-03T01:31:36.935Z,100.00
2024-03-03T01:34:03.964Z,100.00
2024-03-03T01:36:31.068Z,100.00
2024-03-03T01:38:57.978Z,100.00
2024-03-03T01:41:24.927Z,100.00
2024-03-03T01:43:52.431Z,100.00
2024-03-03T01:46:19.814Z,100.00
2024-03-03T01:48:47.821Z,100.00
2024-03-03T01:51:15.483Z,100.00
2024-03-03T01:53:46.357Z,100.00
2024-03-03T01:56:13.642Z,100.00
2024-03-03T01:58:41.085Z,100.00
2024-03-03T02:01:08.870Z,100.00
2024-03-03T02:03:35.955Z,100.00
2024-03-03T02:06:03.686Z,100.00
2024-03-03T02:08:31.644Z,100.00
2024-03-03T02:10:59.628Z,100.00
2024-03-03T02:13:26.950Z,100.00
2024-03-03T02:15:54.155Z,100.00
2024-03-03T02:18:21.159Z,100.00
2024-03-03T02:20:48.091Z,100.00
2024-03-03T02:23:15.425Z,100.00
2024-03-03T02:25:42.454Z,100.00
2024-03-03T02:28:10.882Z,100.00
2024-03-03T02:30:38.005Z,100.00
2024-03-03T02:33:05.144Z,100.00
2024-03-03T02:35:32.223Z,100.00
2024-03-03T02:37:59.203Z,100.00
2024-03-03T02:40:26.229Z,100.00
2024-03-03T02:42:53.158Z,100.00
2024-03-03T02:45:20.135Z,100.00
2024-03-03T02:47:49.391Z,100.00
2024-03-03T02:50:16.595Z,100.00
2024-03-03T02:52:43.482Z,100.00
2024-03-03T02:55:10.404Z,100.00
2024-03-03T02:57:38.754Z,100.00
2024-03-03T03:00:08.907Z,100.00
2024-03-03T03:02:35.815Z,100.00
2024-03-03T03:05:02.740Z,100.00
2024-03-03T03:07:29.640Z,100.00
2024-03-03T03:09:57.411Z,100.00
2024-03-03T03:12:24.418Z,100.00
2024-03-03T03:14:51.319Z,100.00
2024-03-03T03:17:18.265Z,100.00
2024-03-03T03:19:46.184Z,100.00
2024-03-03T03:22:13.601Z,100.00
2024-03-03T03:24:40.605Z,100.00
2024-03-03T03:27:07.679Z,100.00
2024-03-03T03:29:35.172Z,100.00
2024-03-03T03:32:02.232Z,100.00
2024-03-03T03:34:29.206Z,100.00
2024-03-03T03:36:56.590Z,100.00
2024-03-03T03:39:23.746Z,100.00
2024-03-03T03:41:51.443Z,100.00
2024-03-03T03:44:20.235Z,100.00
2024-03-03T03:46:47.671Z,100.00
2024-03-03T03:49:15.815Z,100.00
2024-03-03T03:51:43.389Z,100.00
2024-03-03T03:54:10.554Z,100.00
2024-03-03T03:56:37.945Z,100.00
2024-03-03T03:59:04.879Z,100.00
2024-03-03T04:01:32.245Z,100.00
2024-03-03T04:03:59.971Z,100.00
2024-03-03T04:06:29.678Z,100.00
2024-03-03T04:08:56.727Z,100.00
2024-03-03T04:11:24.116Z,100.00
2024-03-03T04:13:51.564Z,100.00
2024-03-03T04:16:22.181Z,100.00
2024-03-03T04:18:49.485Z,100.00
2024-03-03T04:21:17.540Z,100.00
2024-03-03T04:23:45.016Z,100.00
2024-03-03T04:26:13.938Z,100.00
2024-03-03T04:28:41.035Z,100.00
2024-03-03T04:31:08.390Z,100.00
2024-03-03T04:33:37.009Z,100.00
2024-03-03T04:36:09.261Z,100.00
2024-03-03T04:38:38.315Z,100.00
2024-03-03T04:41:14.267Z,100.00
2024-03-03T04:43:41.893Z,100.00
2024-03-03T04:46:09.857Z,100.00
2024-03-03T04:48:37.610Z,100.00
2024-03-03T04:51:05.354Z,100.00
2024-03-03T04:53:32.226Z,100.00
2024-03-03T04:55:59.178Z,100.00
2024-03-03T04:58:26.142Z,100.00
2024-03-03T05:00:53.190Z,100.00
2024-03-03T05:03:20.149Z,100.00
2024-03-03T05:05:47.173Z,100.00
2024-03-03T05:08:14.219Z,100.00
2024-03-03T05:10:41.271Z,100.00
2024-03-03T05:13:08.258Z,100.00
2024-03-03T05:15:35.243Z,100.00
2024-03-03T05:18:02.181Z,100.00
2024-03-03T05:20:29.073Z,100.00
2024-03-03T05:22:55.992Z,100.00
2024-03-03T05:25:22.964Z,100.00
2024-03-03T05:27:49.936Z,100.00
2024-03-03T05:30:16.935Z,100.00
2024-03-03T05:32:43.887Z,100.00
2024-03-03T05:35:11.356Z,100.00
2024-03-03T05:37:38.302Z,100.00
2024-03-03T05:40:05.930Z,100.00
2024-03-03T05:42:32.840Z,100.00
2024-03-03T05:44:59.791Z,100.00
2024-03-03T05:47:27.333Z,100.00
2024-03-03T05:49:54.241Z,100.00
2024-03-03T05:52:21.350Z,100.00
2024-03-03T05:54:48.448Z,100.00
2024-03-03T05:57:15.486Z,100.00
2024-03-03T05:59:42.575Z,100.00
2024-03-03T06:02:09.523Z,100.00
2024-03-03T06:04:38.003Z,100.00
2024-03-03T06:07:05.710Z,100.00
2024-03-03T06:09:32.885Z,100.00
2024-03-03T06:12:01.128Z,100.00
2024-03-03T06:14:28.078Z,100.00
2024-03-03T06:16:55.120Z,100.00
2024-03-03T06:19:22.140Z,100.00
2024-03-03T06:21:51.591Z,100.00
2024-03-03T06:24:19.361Z,100.00
2024-03-03T06:26:47.206Z,100.00
2024-03-03T06:29:14.161Z,100.00
2024-03-03T06:31:47.379Z,100.00
2024-03-03T06:34:14.723Z,100.00
2024-03-03T06:36:42.183Z,100.00
2024-03-03T06:39:14.119Z,100.00
2024-03-03T06:41:45.076Z,100.00
2024-03-03T06:44:18.051Z,100.00
2024-03-03T06:46:46.806Z,100.00
2024-03-03T06:49:14.599Z,100.00
2024-03-03T06:51:41.904Z,100.00
2024-03-03T06:54:08.930Z,100.00
2024-03-03T06:56:36.017Z,100.00
2024-03-03T06:59:02.957Z,100.00
2024-03-03T07:01:32.002Z,100.00
2024-03-03T07:04:17.993Z,100.00
2024-03-03T07:06:45.045Z,100.00
2024-03-03T07:09:12.030Z,100.00
2024-03-03T07:11:39.207Z,100.00
2024-03-03T07:14:06.892Z,99.91
2024-03-03T07:16:34.050Z,98.43
2024-03-03T07:19:01.132Z,100.00
2024-03-03T07:21:29.492Z,100.00
2024-03-03T07:23:56.402Z,100.00
2024-03-03T07:26:23.305Z,100.00
2024-03-03T07:28:52.353Z,100.00
2024-03-03T07:31:19.940Z,100.00
2024-03-03T07:33:47.004Z,100.00
2024-03-03T07:36:14.048Z,100.00
2024-03-03T07:38:41.364Z,100.00
2024-03-03T07:41:08.331Z,100.00
2024-03-03T07:43:35.626Z,100.00
2024-03-03T07:46:02.630Z,100.00
2024-03-03T07:48:29.699Z,100.00
2024-03-03T07:50:56.754Z,100.00
2024-03-03T07:53:24.279Z,100.00
2024-03-03T07:55:51.431Z,100.00
2024-03-03T07:58:18.510Z,100.00
2024-03-03T08:00:45.917Z,100.00
2024-03-03T08:03:13.639Z,100.00
2024-03-03T08:05:40.641Z,100.00
2024-03-03T08:08:07.907Z,100.00
2024-03-03T08:10:35.053Z,100.00
2024-03-03T08:13:02.129Z,100.00
2024-03-03T08:15:29.222Z,100.00
2024-03-03T08:18:00.520Z,100.00
2024-03-03T08:20:29.486Z,100.00
2024-03-03T08:22:56.702Z,100.00
2024-03-03T08:25:25.743Z,99.03
2024-03-03T08:27:54.006Z,98.09
2024-03-03T08:30:21.352Z,100.00
2024-03-03T08:32:48.499Z,100.00
2024-03-03T08:35:15.980Z,98.22
2024-03-03T08:37:45.888Z,98.43
2024-03-03T08:40:13.197Z,100.00
2024-03-03T08:42:40.408Z,100.00
2024-03-03T08:45:08.058Z,99.43
2024-03-03T08:47:35.233Z,97.88
2024-03-03T08:50:02.579Z,96.46
2024-03-03T08:52:29.684Z,95.43
2024-03-03T08:54:56.663Z,97.34
2024-03-03T08:57:26.449Z,99.49
2024-03-03T08:59:53.444Z,95.94
2024-03-03T09:02:20.353Z,95.75
2024-03-03T09:04:47.328Z,98.93
2024-03-03T09:07:14.703Z,100.00
2024-03-03T09:09:44.198Z,99.08
2024-03-03T09:12:12.806Z,100.00
2024-03-03T09:14:40.099Z,100.00
2024-03-03T09:17:07.077Z,100.00
2024-03-03T09:19:34.241Z,100.00
2024-03-03T09:22:01.327Z,100.00
2024-03-03T09:24:28.383Z,100.00
2024-03-03T09:26:55.321Z,100.00
2024-03-03T09:29:25.118Z,100.00
2024-03-03T09:31:55.521Z,100.00
2024-03-03T09:34:23.606Z,100.00
2024-03-03T09:36:51.000Z,100.00
2024-03-03T09:39:18.429Z,100.00
2024-03-03T09:41:45.559Z,100.00
2024-03-03T09:44:19.083Z,100.00
2024-03-03T09:46:47.971Z,100.00
2024-03-03T09:49:19.691Z,100.00
2024-03-03T09:51:48.313Z,100.00
2024-03-03T09:54:19.860Z,100.00
2024-03-03T09:56:49.204Z,100.00
2024-03-03T09:59:17.114Z,100.00
2024-03-03T10:02:00.547Z,100.00
2024-03-03T10:04:30.046Z,100.00
2024-03-03T10:07:01.241Z,100.00
2024-03-03T10:09:30.669Z,100.00
2024-03-03T10:11:58.532Z,100.00
2024-03-03T10:14:27.241Z,100.00
2024-03-03T10:16:54.159Z,100.00
2024-03-03T10:19:21.209Z,100.00
2024-03-03T10:21:49.054Z,100.00
2024-03-03T10:24:27.970Z,100.00
2024-03-03T10:26:57.051Z,98.40
2024-03-03T10:29:28.817Z,98.44
2024-03-03T10:31:56.998Z,97.10
2024-03-03T10:34:25.275Z,96.60
2024-03-03T10:37:03.920Z,95.34
2024-03-03T10:39:36.529Z,93.24
2024-03-03T10:42:11.083Z,93.55
2024-03-03T10:44:38.865Z,96.39
2024-03-03T10:47:10.235Z,96.09
2024-03-03T10:49:40.183Z,95.82
2024-03-03T10:52:12.024Z,94.22
2024-03-03T10:54:43.126Z,92.81
2024-03-03T10:57:11.265Z,92.24
2024-03-03T10:59:42.649Z,90.48
2024-03-03T11:02:13.860Z,91.79
2024-03-03T11:04:43.056Z,92.69
2024-03-03T11:07:12.144Z,92.65
2024-03-03T11:09:39.643Z,95.16
2024-03-03T11:12:09.153Z,95.58
2024-03-03T11:14:46.824Z,93.56
2024-03-03T11:17:23.063Z,93.65
2024-03-03T11:19:51.449Z,92.16
2024-03-03T11:22:23.598Z,90.53
2024-03-03T11:25:17.016Z,94.87
2024-03-03T11:27:51.667Z,92.49
2024-03-03T11:30:18.964Z,93.35
2024-03-03T11:32:46.834Z,93.16
2024-03-03T11:35:14.587Z,92.42
2024-03-03T11:37:41.599Z,91.50
2024-03-03T11:40:17.859Z,91.73
2024-03-03T11:42:47.599Z,91.25
2024-03-03T11:45:15.035Z,90.31
2024-03-03T11:47:50.782Z,91.77
2024-03-03T11:50:22.991Z,88.21
2024-03-03T11:52:51.446Z,87.05
2024-03-03T11:55:26.118Z,86.64
2024-03-03T11:57:56.363Z,86.24
2024-03-03T12:00:28.749Z,85.91
2024-03-03T12:02:57.230Z,84.94
2024-03-03T12:05:24.296Z,86.47
2024-03-03T12:07:55.523Z,85.25
2024-03-03T12:10:28.304Z,86.10
2024-03-03T12:13:00.610Z,85.71
2024-03-03T12:15:29.337Z,86.33
2024-03-03T12:17:58.586Z,87.57
2024-03-03T12:20:27.793Z,88.17
2024-03-03T12:22:55.837Z,85.93
2024-03-03T12:25:25.471Z,88.40
2024-03-03T12:28:03.376Z,86.07
2024-03-03T12:30:33.630Z,85.12
2024-03-03T12:33:01.970Z,86.71
2024-03-03T12:35:29.385Z,86.39
2024-03-03T12:37:56.855Z,84.11
2024-03-03T12:40:26.418Z,84.59
2024-03-03T12:42:54.010Z,82.54
2024-03-03T12:45:21.297Z,82.68
2024-03-03T12:47:51.454Z,82.87
2024-03-03T12:50:20.474Z,81.80
2024-03-03T12:52:48.675Z,83.56
2024-03-03T12:55:16.600Z,84.91
2024-03-03T12:57:45.641Z,85.16
2024-03-03T13:00:19.450Z,85.92
2024-03-03T13:02:46.840Z,86.35
2024-03-03T13:05:15.699Z,83.70
2024-03-03T13:07:53.023Z,83.81
2024-03-03T13:10:24.953Z,83.62
2024-03-03T13:12:53.426Z,83.73
2024-03-03T13:15:25.089Z,81.16
2024-03-03T13:18:08.034Z,79.42
2024-03-03T13:20:35.623Z,76.83
2024-03-03T13:23:11.950Z,75.24
2024-03-03T13:25:40.823Z,72.11
2024-03-03T13:28:08.293Z,70.94
2024-03-03T13:30:35.911Z,72.04
2024-03-03T13:33:02.927Z,70.93
2024-03-03T13:35:30.090Z,73.69
2024-03-03T13:37:57.175Z,74.22
2024-03-03T13:40:24.135Z,71.31
2024-03-03T13:42:51.107Z,72.88
2024-03-03T13:45:18.471Z,74.47
2024-03-03T13:47:45.491Z,71.01
2024-03-03T13:50:12.710Z,72.62
2024-03-03T13:52:39.793Z,71.43
2024-03-03T13:55:07.448Z,73.97
2024-03-03T13:57:34.594Z,73.55
2024-03-03T14:00:01.557Z,75.32
2024-03-03T14:02:38.871Z,72.76
2024-03-03T14:05:06.169Z,73.27
2024-03-03T14:07:33.273Z,74.00
2024-03-03T14:10:00.884Z,75.80
2024-03-03T14:12:28.059Z,77.59
2024-03-03T14:14:54.986Z,75.58
2024-03-03T14:17:21.904Z,74.24
2024-03-03T14:19:48.882Z,74.52
2024-03-03T14:22:16.086Z,79.44
2024-03-03T14:24:43.673Z,79.84
2024-03-03T14:27:10.705Z,78.92
2024-03-03T14:29:38.039Z,77.87
2024-03-03T14:32:05.296Z,78.27
2024-03-03T14:34:32.226Z,78.18
2024-03-03T14:37:01.154Z,78.98
2024-03-03T14:39:28.286Z,78.33
2024-03-03T14:41:55.169Z,79.13
2024-03-03T14:44:22.068Z,78.30
2024-03-03T14:46:49.005Z,75.18
2024-03-03T14:49:17.914Z,75.11
2024-03-03T14:51:44.783Z,75.42
2024-03-03T14:54:14.108Z,75.70
2024-03-03T14:56:41.342Z,73.00
2024-03-03T14:59:08.392Z,75.91
2024-03-03T15:01:35.368Z,72.99
2024-03-03T15:04:03.654Z,76.42
2024-03-03T15:06:30.558Z,75.95
2024-03-03T15:08:57.577Z,72.80
2024-03-03T15:11:24.658Z,75.33
2024-03-03T15:13:51.608Z,76.33
2024-03-03T15:16:20.406Z,76.49
2024-03-03T15:18:47.386Z,74.54
2024-03-03T15:21:14.283Z,75.44
2024-03-03T15:23:41.716Z,74.90
2024-03-03T15:26:08.651Z,75.37
2024-03-03T15:28:35.649Z,74.04
2024-03-03T15:31:03.898Z,74.84
2024-03-03T15:33:31.901Z,75.33
2024-03-03T15:35:59.976Z,74.77
2024-03-03T15:38:28.026Z,75.90
2024-03-03T15:40:54.936Z,75.70
2024-03-03T15:43:21.901Z,74.74
2024-03-03T15:45:49.637Z,73.80
2024-03-03T15:48:17.408Z,74.96
2024-03-03T15:50:44.338Z,73.92
2024-03-03T15:53:11.328Z,74.16
2024-03-03T15:55:39.352Z,74.45
2024-03-03T15:58:06.704Z,75.51
2024-03-03T16:00:33.850Z,77.39
2024-03-03T16:03:02.710Z,76.25
2024-03-03T16:05:32.527Z,75.62
2024-03-03T16:07:59.998Z,75.50
2024-03-03T16:10:26.941Z,76.06
2024-03-03T16:12:53.936Z,75.67
2024-03-03T16:15:22.994Z,79.11
2024-03-03T16:17:50.552Z,80.54
2024-03-03T16:20:18.201Z,82.72
2024-03-03T16:22:45.283Z,83.28
2024-03-03T16:25:12.547Z,82.61
2024-03-03T16:27:39.593Z,83.34
2024-03-03T16:30:07.330Z,84.07
2024-03-03T16:32:34.393Z,84.20
2024-03-03T16:35:01.359Z,82.36
2024-03-03T16:37:28.429Z,83.14
2024-03-03T16:39:56.499Z,85.27
2024-03-03T16:42:23.575Z,85.27
2024-03-03T16:44:50.758Z,85.08
2024-03-03T16:47:17.948Z,85.43
2024-03-03T16:49:45.254Z,84.76
2024-03-03T16:52:12.259Z,86.24
2024-03-03T16:54:39.689Z,88.19
2024-03-03T16:57:06.881Z,88.53
2024-03-03T16:59:33.836Z,88.97
2024-03-03T17:02:00.917Z,90.15
2024-03-03T17:04:28.080Z,88.54
2024-03-03T17:06:55.145Z,92.82
2024-03-03T17:09:22.357Z,88.87
2024-03-03T17:11:49.264Z,86.52
2024-03-03T17:14:16.220Z,87.15
2024-03-03T17:16:43.274Z,86.77
2024-03-03T17:19:10.357Z,84.25
2024-03-03T17:21:37.281Z,88.36
2024-03-03T17:24:04.435Z,86.24
2024-03-03T17:26:31.846Z,85.66
2024-03-03T17:28:58.857Z,86.73
2024-03-03T17:31:25.859Z,87.77
2024-03-03T17:33:54.364Z,87.66
2024-03-03T17:36:24.707Z,86.77
2024-03-03T17:38:52.771Z,87.07
2024-03-03T17:41:19.782Z,85.98
2024-03-03T17:43:47.915Z,84.86
2024-03-03T17:46:15.004Z,84.29
2024-03-03T17:48:42.002Z,84.85
2024-03-03T17:51:09.081Z,84.84
2024-03-03T17:53:36.010Z,87.05
2024-03-03T17:56:05.628Z,86.18
2024-03-03T17:58:32.856Z,89.03
2024-03-03T18:00:59.971Z,90.78
2024-03-03T18:03:27.180Z,91.54
2024-03-03T18:05:54.186Z,90.33
2024-03-03T18:08:21.282Z,89.51
2024-03-03T18:10:48.222Z,93.60
2024-03-03T18:13:15.255Z,91.72
2024-03-03T18:15:42.225Z,91.40
2024-03-03T18:18:10.393Z,94.03
2024-03-03T18:20:37.384Z,92.60
2024-03-03T18:23:04.535Z,91.63
2024-03-03T18:25:31.690Z,91.17
2024-03-03T18:27:58.695Z,92.96
2024-03-03T18:30:27.168Z,93.41
2024-03-03T18:32:58.673Z,93.58
2024-03-03T18:35:25.626Z,93.21
2024-03-03T18:37:52.657Z,94.50
2024-03-03T18:40:19.724Z,94.22
2024-03-03T18:42:48.282Z,92.82
2024-03-03T18:45:15.548Z,89.95
2024-03-03T18:47:42.645Z,89.42
2024-03-03T18:50:10.539Z,89.12
2024-03-03T18:52:37.765Z,88.57
2024-03-03T18:55:06.260Z,91.79
2024-03-03T18:57:34.480Z,92.72
2024-03-03T19:00:01.516Z,95.03
2024-03-03T19:02:29.085Z,92.28
2024-03-03T19:04:56.119Z,91.49
2024-03-03T19:07:23.149Z,91.18
2024-03-03T19:09:50.224Z,91.16
2024-03-03T19:12:17.349Z,90.75
2024-03-03T19:14:44.329Z,90.33
2024-03-03T19:17:11.309Z,90.22
2024-03-03T19:19:40.176Z,89.95
2024-03-03T19:22:07.267Z,90.70
2024-03-03T19:24:34.259Z,90.93
2024-03-03T19:27:01.212Z,89.79
2024-03-03T19:29:29.457Z,88.80
2024-03-03T19:31:56.429Z,88.90
2024-03-03T19:34:23.782Z,88.98
2024-03-03T19:36:50.870Z,89.85
2024-03-03T19:39:17.873Z,89.79
2024-03-03T19:41:44.783Z,93.31
2024-03-03T19:44:13.183Z,94.45
2024-03-03T19:46:43.914Z,92.80
2024-03-03T19:49:12.524Z,93.47
2024-03-03T19:51:39.554Z,91.30
2024-03-03T19:54:06.513Z,90.17
2024-03-03T19:56:33.548Z,89.79
2024-03-03T19:59:00.641Z,89.59
2024-03-03T20:01:27.787Z,89.48
2024-03-03T20:03:54.913Z,89.19
2024-03-03T20:06:21.989Z,89.14
2024-03-03T20:08:48.941Z,88.94
2024-03-03T20:11:16.290Z,89.03
2024-03-03T20:13:44.310Z,88.79
2024-03-03T20:16:11.951Z,88.24
2024-03-03T20:18:47.308Z,89.60
2024-03-03T20:21:14.317Z,90.47
2024-03-03T20:23:41.257Z,90.88
2024-03-03T20:26:08.269Z,92.40
2024-03-03T20:28:36.176Z,91.39
2024-03-03T20:31:03.176Z,92.21
2024-03-03T20:33:30.315Z,94.87
2024-03-03T20:35:57.272Z,93.05
2024-03-03T20:38:24.247Z,93.63
2024-03-03T20:40:52.135Z,93.70
2024-03-03T20:43:19.365Z,95.34
2024-03-03T20:45:48.589Z,95.75
2024-03-03T20:48:16.130Z,95.96
2024-03-03T20:50:43.098Z,97.82
2024-03-03T20:53:10.159Z,97.21
2024-03-03T20:55:37.295Z,96.18
2024-03-03T20:58:04.480Z,94.02
2024-03-03T21:00:31.607Z,93.04
2024-03-03T21:02:58.907Z,92.03
2024-03-03T21:05:26.523Z,93.89
2024-03-03T21:07:53.602Z,94.04
2024-03-03T21:10:22.962Z,92.97
2024-03-03T21:12:50.223Z,93.84
2024-03-03T21:15:17.375Z,93.37
2024-03-03T21:17:44.344Z,93.24
2024-03-03T21:20:14.430Z,93.24
2024-03-03T21:22:44.478Z,93.20
2024-03-03T21:25:14.624Z,92.57
2024-03-03T21:27:41.662Z,93.17
2024-03-03T21:30:09.763Z,94.63
2024-03-03T21:32:36.739Z,93.70
2024-03-03T21:35:03.801Z,94.58
2024-03-03T21:37:30.788Z,96.13
2024-03-03T21:39:57.716Z,95.80
2024-03-03T21:42:24.728Z,94.23
2024-03-03T21:44:51.878Z,93.92
2024-03-03T21:47:18.846Z,95.00
2024-03-03T21:49:47.247Z,94.08
2024-03-03T21:52:14.336Z,95.69
2024-03-03T21:54:41.355Z,94.38
2024-03-03T21:57:08.513Z,93.37
2024-03-03T21:59:35.462Z,93.17
2024-03-03T22:02:07.999Z,93.47
2024-03-03T22:04:35.869Z,96.77
2024-03-03T22:07:03.338Z,95.53
2024-03-03T22:09:30.379Z,95.09
2024-03-03T22:11:57.601Z,94.87
2024-03-03T22:14:24.515Z,95.31
2024-03-03T22:16:51.493Z,94.80
2024-03-03T22:19:19.021Z,95.27
2024-03-03T22:21:46.119Z,95.42
2024-03-03T22:24:13.965Z,95.71
2024-03-03T22:26:43.157Z,94.81
2024-03-03T22:29:11.289Z,94.99
2024-03-03T22:31:38.556Z,93.45
2024-03-03T22:34:05.594Z,93.33
2024-03-03T22:36:32.681Z,92.62
2024-03-03T22:38:59.601Z,92.87
2024-03-03T22:41:27.300Z,92.34
2024-03-03T22:43:54.253Z,92.75
2024-03-03T22:46:23.173Z,92.81
2024-03-03T22:48:50.265Z,93.17
2024-03-03T22:51:17.262Z,93.11
2024-03-03T22:53:45.144Z,92.76
2024-03-03T22:56:12.160Z,93.29
2024-03-03T22:58:39.204Z,93.52
2024-03-03T23:01:06.271Z,93.60
2024-03-03T23:03:33.549Z,95.69
2024-03-03T23:06:00.410Z,96.81
2024-03-03T23:08:27.379Z,96.22
2024-03-03T23:10:54.380Z,95.95
2024-03-03T23:13:21.786Z,95.51
2024-03-03T23:15:48.764Z,95.51
2024-03-03T23:18:16.417Z,95.59
2024-03-03T23:20:43.399Z,95.34
2024-03-03T23:23:10.379Z,95.75
2024-03-03T23:25:37.388Z,96.31
2024-03-03T23:28:04.737Z,96.73
2024-03-03T23:30:31.721Z,96.24
2024-03-03T23:32:58.658Z,95.92
2024-03-03T23:35:25.974Z,96.92
2024-03-03T23:37:53.104Z,96.82
2024-03-03T23:40:20.362Z,97.31
2024-03-03T23:42:47.387Z,96.73
2024-03-03T23:45:14.351Z,95.86
2024-03-03T23:47:42.784Z,95.90
2024-03-03T23:50:09.994Z,97.92
2024-03-03T23:52:36.956Z,98.06
2024-03-03T23:55:04.816Z,98.85
2024-03-03T23:57:32.226Z,98.76
2024-03-03T23:59:59.248Z,98.63
